createdAt,value
2023-02-17T00:01:12.096Z,9.10
2023-02-17T00:03:39.003Z,9.20
2023-02-17T00:06:10.542Z,9.20
2023-02-17T00:08:37.996Z,9.20
2023-02-17T00:11:04.993Z,9.20
2023-02-17T00:13:31.589Z,9.20
2023-02-17T00:15:58.352Z,9.20
2023-02-17T00:18:25.247Z,9.20
2023-02-17T00:20:51.952Z,9.20
2023-02-17T00:23:18.597Z,9.30
2023-02-17T00:25:45.506Z,9.30
2023-02-17T00:28:12.162Z,9.30
2023-02-17T00:30:39.283Z,9.30
2023-02-17T00:33:06.245Z,9.30
2023-02-17T00:35:33.182Z,9.30
2023-02-17T00:37:59.768Z,9.30
2023-02-17T00:40:26.336Z,9.30
2023-02-17T00:42:54.750Z,9.30
2023-02-17T00:45:21.377Z,9.30
2023-02-17T00:47:47.919Z,9.30
2023-02-17T00:50:14.479Z,9.30
2023-02-17T00:52:41.209Z,9.30
2023-02-17T00:55:08.039Z,9.30
2023-02-17T00:57:34.695Z,9.30
2023-02-17T01:00:01.429Z,9.30
2023-02-17T01:02:28.073Z,9.30
2023-02-17T01:04:54.736Z,9.30
2023-02-17T01:07:21.387Z,9.30
2023-02-17T01:09:47.978Z,9.30
2023-02-17T01:12:14.605Z,9.40
2023-02-17T01:14:41.302Z,9.40
2023-02-17T01:17:07.996Z,9.30
2023-02-17T01:19:34.585Z,9.40
2023-02-17T01:22:01.211Z,9.30
2023-02-17T01:24:27.838Z,9.30
2023-02-17T01:26:54.514Z,9.30
2023-02-17T01:29:21.196Z,9.40
2023-02-17T01:31:47.763Z,9.40
2023-02-17T01:34:14.378Z,9.40
2023-02-17T01:36:40.976Z,9.40
2023-02-17T01:39:07.693Z,9.40
2023-02-17T01:41:34.348Z,9.40
2023-02-17T01:44:15.674Z,9.40
2023-02-17T01:46:50.198Z,9.40
2023-02-17T01:49:34.791Z,9.40
2023-02-17T01:52:10.680Z,9.40
2023-02-17T01:54:45.505Z,9.40
2023-02-17T01:57:16.775Z,9.40
2023-02-17T01:59:45.103Z,9.40
2023-02-17T02:02:12.701Z,9.40
2023-02-17T02:04:43.055Z,9.40
2023-02-17T02:07:15.897Z,9.40
2023-02-17T02:09:50.574Z,9.40
2023-02-17T02:12:24.115Z,9.40
2023-02-17T02:14:51.605Z,9.40
2023-02-17T02:17:41.575Z,9.40
2023-02-17T02:20:37.931Z,9.40
2023-02-17T02:23:40.442Z,9.40
2023-02-17T02:26:28.234Z,9.40
2023-02-17T02:29:36.134Z,9.40
2023-02-17T02:32:05.558Z,9.40
2023-02-17T02:34:39.945Z,9.40
2023-02-17T02:37:15.019Z,9.40
2023-02-17T02:39:47.070Z,9.40
2023-02-17T02:42:18.224Z,9.50
2023-02-17T02:44:44.966Z,9.40
2023-02-17T02:47:49.418Z,9.50
2023-02-17T02:50:21.317Z,9.50
2023-02-17T02:52:52.379Z,9.50
2023-02-17T02:55:32.463Z,9.50
2023-02-17T02:58:22.501Z,9.50
2023-02-17T03:01:02.390Z,9.50
2023-02-17T03:03:41.233Z,9.50
2023-02-17T03:06:21.094Z,9.50
2023-02-17T03:08:55.531Z,9.50
2023-02-17T03:11:33.846Z,9.50
2023-02-17T03:14:12.503Z,9.50
2023-02-17T03:16:41.408Z,9.50
2023-02-17T03:19:10.019Z,9.50
2023-02-17T03:21:46.434Z,9.50
2023-02-17T03:24:13.006Z,9.50
2023-02-17T03:26:39.623Z,9.60
2023-02-17T03:29:06.246Z,9.60
2023-02-17T03:31:33.067Z,9.50
2023-02-17T03:34:00.814Z,9.50
2023-02-17T03:36:27.583Z,9.60
2023-02-17T03:38:54.195Z,9.60
2023-02-17T03:41:20.767Z,9.60
2023-02-17T03:43:47.329Z,9.60
2023-02-17T03:46:15.710Z,9.60
2023-02-17T03:48:42.688Z,9.60
2023-02-17T03:51:13.838Z,9.60
2023-02-17T03:53:41.139Z,9.60
2023-02-17T03:56:08.294Z,9.60
2023-02-17T03:58:35.188Z,9.60
2023-02-17T04:01:01.947Z,9.70
2023-02-17T04:03:28.569Z,9.70
2023-02-17T04:05:55.376Z,9.70
2023-02-17T04:08:22.221Z,9.60
2023-02-17T04:10:56.439Z,9.70
2023-02-17T04:13:23.560Z,9.70
2023-02-17T04:15:50.970Z,9.70
2023-02-17T04:18:18.057Z,9.70
2023-02-17T04:20:45.104Z,9.70
2023-02-17T04:23:14.324Z,9.70
2023-02-17T04:25:41.508Z,9.70
2023-02-17T04:28:08.335Z,9.70
2023-02-17T04:30:35.852Z,9.70
2023-02-17T04:33:02.821Z,9.70
2023-02-17T04:35:29.584Z,9.70
2023-02-17T04:37:56.164Z,9.70
2023-02-17T04:40:23.216Z,9.70
2023-02-17T04:42:49.935Z,9.70
2023-02-17T04:45:16.885Z,9.70
2023-02-17T04:47:43.544Z,9.80
2023-02-17T04:50:10.949Z,9.80
2023-02-17T04:52:37.550Z,9.80
2023-02-17T04:55:05.258Z,9.80
2023-02-17T04:57:31.962Z,9.80
2023-02-17T04:59:58.627Z,9.70
2023-02-17T05:02:28.300Z,9.80
2023-02-17T05:04:55.009Z,9.80
2023-02-17T05:07:22.063Z,9.80
2023-02-17T05:09:48.702Z,9.80
2023-02-17T05:12:15.479Z,9.80
2023-02-17T05:14:42.026Z,9.80
2023-02-17T05:17:08.632Z,9.90
2023-02-17T05:19:35.335Z,9.90
2023-02-17T05:22:01.926Z,9.90
2023-02-17T05:24:28.484Z,9.90
2023-02-17T05:26:55.056Z,9.90
2023-02-17T05:29:21.661Z,9.90
2023-02-17T05:31:48.413Z,9.90
2023-02-17T05:34:15.118Z,9.90
2023-02-17T05:36:41.678Z,9.90
2023-02-17T05:39:08.927Z,9.90
2023-02-17T05:41:35.470Z,9.90
2023-02-17T05:44:02.117Z,9.90
2023-02-17T05:46:28.758Z,9.90
2023-02-17T05:48:55.346Z,9.90
2023-02-17T05:51:21.942Z,9.90
2023-02-17T05:53:48.544Z,9.90
2023-02-17T05:56:15.230Z,9.90
2023-02-17T05:58:41.853Z,9.90
2023-02-17T06:01:12.278Z,9.90
2023-02-17T06:03:38.831Z,9.90
2023-02-17T06:06:07.294Z,9.90
2023-02-17T06:08:35.150Z,9.90
2023-02-17T06:11:01.747Z,9.90
2023-02-17T06:13:28.312Z,9.90
2023-02-17T06:15:54.936Z,9.80
2023-02-17T06:18:21.645Z,9.90
2023-02-17T06:20:48.238Z,9.80
2023-02-17T06:23:14.886Z,9.80
2023-02-17T06:25:41.774Z,9.80
2023-02-17T06:28:08.558Z,9.80
2023-02-17T06:30:35.132Z,9.70
2023-02-17T06:33:01.860Z,9.60
2023-02-17T06:35:28.435Z,9.60
2023-02-17T06:37:55.127Z,9.50
2023-02-17T06:40:22.022Z,9.50
2023-02-17T06:42:48.597Z,9.40
2023-02-17T06:45:15.407Z,9.40
2023-02-17T06:47:41.993Z,9.40
2023-02-17T06:50:09.642Z,9.40
2023-02-17T06:52:36.378Z,9.30
2023-02-17T06:55:03.429Z,9.30
2023-02-17T06:57:30.085Z,9.30
2023-02-17T06:59:56.620Z,9.30
2023-02-17T07:02:23.311Z,9.30
2023-02-17T07:04:49.917Z,9.30
2023-02-17T07:07:16.463Z,9.40
2023-02-17T07:09:43.390Z,9.40
2023-02-17T07:12:10.026Z,9.40
2023-02-17T07:14:36.606Z,9.40
2023-02-17T07:17:03.470Z,9.40
2023-02-17T07:19:30.366Z,9.40
2023-02-17T07:21:57.081Z,9.40
2023-02-17T07:24:23.833Z,9.40
2023-02-17T07:26:50.467Z,9.50
2023-02-17T07:29:17.022Z,9.50
2023-02-17T07:31:43.861Z,9.50
2023-02-17T07:34:10.472Z,9.50
2023-02-17T07:36:37.088Z,9.50
2023-02-17T07:39:04.196Z,9.50
2023-02-17T07:41:32.772Z,9.50
2023-02-17T07:43:59.860Z,9.50
2023-02-17T07:46:27.030Z,9.50
2023-02-17T07:48:55.013Z,9.50
2023-02-17T07:51:22.920Z,9.60
2023-02-17T07:53:51.006Z,9.60
2023-02-17T07:56:21.390Z,9.60
2023-02-17T07:58:48.739Z,9.60
2023-02-17T08:01:18.031Z,9.60
2023-02-17T08:03:45.415Z,9.70
2023-02-17T08:06:23.189Z,9.70
2023-02-17T08:09:09.906Z,9.70
2023-02-17T08:11:56.060Z,9.70
2023-02-17T08:14:24.847Z,9.70
2023-02-17T08:16:51.513Z,9.70
2023-02-17T08:19:18.140Z,9.70
2023-02-17T08:21:44.808Z,9.70
2023-02-17T08:24:12.269Z,9.80
2023-02-17T08:26:39.421Z,9.80
2023-02-17T08:29:06.116Z,9.80
2023-02-17T08:31:35.123Z,9.80
2023-02-17T08:34:04.488Z,9.80
2023-02-17T08:36:31.399Z,9.90
2023-02-17T08:38:58.517Z,9.90
2023-02-17T08:41:32.625Z,9.90
2023-02-17T08:44:01.650Z,9.90
2023-02-17T08:46:29.423Z,10.00
2023-02-17T08:48:56.533Z,10.00
2023-02-17T08:51:25.938Z,10.00
2023-02-17T08:53:54.701Z,10.10
2023-02-17T08:56:25.340Z,10.10
2023-02-17T08:58:52.733Z,10.10
2023-02-17T09:01:20.637Z,10.10
2023-02-17T09:03:49.882Z,10.10
2023-02-17T09:06:17.215Z,10.20
2023-02-17T09:08:44.931Z,10.20
2023-02-17T09:11:12.609Z,10.20
2023-02-17T09:13:39.165Z,10.20
2023-02-17T09:16:06.324Z,10.30
2023-02-17T09:18:33.263Z,10.30
2023-02-17T09:21:04.612Z,10.30
2023-02-17T09:23:31.216Z,10.30
2023-02-17T09:26:10.276Z,10.40
2023-02-17T09:28:38.021Z,10.40
2023-02-17T09:31:29.114Z,10.40
2023-02-17T09:33:56.337Z,10.40
2023-02-17T09:36:26.245Z,10.50
2023-02-17T09:38:54.152Z,10.50
2023-02-17T09:41:34.622Z,10.60
2023-02-17T09:44:02.172Z,10.60
2023-02-17T09:46:36.786Z,10.60
2023-02-17T09:49:10.693Z,10.70
2023-02-17T09:51:51.219Z,10.70
2023-02-17T09:54:23.858Z,10.80
2023-02-17T09:56:52.752Z,10.80
2023-02-17T09:59:34.855Z,10.90
2023-02-17T10:02:07.339Z,10.90
2023-02-17T10:04:41.195Z,11.00
2023-02-17T10:07:11.272Z,11.00
2023-02-17T10:09:51.811Z,11.00
2023-02-17T10:12:25.388Z,11.10
2023-02-17T10:14:55.809Z,11.10
2023-02-17T10:17:50.840Z,11.10
2023-02-17T10:20:25.669Z,11.10
2023-02-17T10:23:15.328Z,11.10
2023-02-17T10:26:10.003Z,11.20
2023-02-17T10:28:59.497Z,11.20
2023-02-17T10:31:41.195Z,11.20
2023-02-17T10:34:31.029Z,11.30
2023-02-17T10:37:02.156Z,11.30
2023-02-17T10:39:49.056Z,11.30
2023-02-17T10:42:30.584Z,11.30
2023-02-17T10:45:04.225Z,11.30
2023-02-17T10:47:31.493Z,11.30
2023-02-17T10:50:01.202Z,11.30
2023-02-17T10:52:39.168Z,11.30
2023-02-17T10:55:22.669Z,11.40
2023-02-17T10:57:54.505Z,11.40
2023-02-17T11:00:21.510Z,11.40
2023-02-17T11:02:51.521Z,11.50
2023-02-17T11:05:33.014Z,11.50
2023-02-17T11:08:07.250Z,11.50
2023-02-17T11:10:37.588Z,11.50
2023-02-17T11:13:29.853Z,11.50
2023-02-17T11:15:56.976Z,11.50
2023-02-17T11:18:28.992Z,11.50
2023-02-17T11:21:08.323Z,11.50
2023-02-17T11:23:36.185Z,11.50
2023-02-17T11:26:10.097Z,11.50
2023-02-17T11:28:37.332Z,11.50
2023-02-17T11:31:04.904Z,11.50
2023-02-17T11:33:39.744Z,11.50
2023-02-17T11:36:08.408Z,11.40
2023-02-17T11:38:45.449Z,11.50
2023-02-17T11:41:12.188Z,11.50
2023-02-17T11:43:39.963Z,11.50
2023-02-17T11:46:06.822Z,11.40
2023-02-17T11:48:54.423Z,11.40
2023-02-17T11:52:03.937Z,11.50
2023-02-17T11:55:03.291Z,11.50
2023-02-17T11:57:49.823Z,11.40
2023-02-17T12:00:26.486Z,11.30
2023-02-17T12:03:17.871Z,11.20
2023-02-17T12:06:00.919Z,11.10
2023-02-17T12:08:48.680Z,11.00
2023-02-17T12:11:27.344Z,10.90
2023-02-17T12:14:31.514Z,10.90
2023-02-17T12:17:34.642Z,10.90
2023-02-17T12:20:37.294Z,10.80
2023-02-17T12:23:18.762Z,10.80
2023-02-17T12:26:01.311Z,10.80
2023-02-17T12:28:33.838Z,10.90
2023-02-17T12:31:31.258Z,10.90
2023-02-17T12:34:13.104Z,10.90
2023-02-17T12:36:41.831Z,10.90
2023-02-17T12:39:15.079Z,10.90
2023-02-17T12:41:48.986Z,10.90
2023-02-17T12:44:35.823Z,11.00
2023-02-17T12:47:30.065Z,11.00
2023-02-17T12:50:19.135Z,11.00
2023-02-17T12:52:50.899Z,11.10
2023-02-17T12:55:20.647Z,11.10
2023-02-17T12:58:00.405Z,11.20
2023-02-17T13:01:09.054Z,11.20
2023-02-17T13:03:37.001Z,11.30
2023-02-17T13:06:36.813Z,11.40
2023-02-17T13:09:21.903Z,11.40
2023-02-17T13:11:48.552Z,11.50
2023-02-17T13:14:29.735Z,11.50
2023-02-17T13:16:56.423Z,11.60
2023-02-17T13:19:35.163Z,11.70
2023-02-17T13:22:02.336Z,11.80
2023-02-17T13:24:34.209Z,11.80
2023-02-17T13:27:32.935Z,11.90
2023-02-17T13:30:02.547Z,11.90
2023-02-17T13:32:31.567Z,11.90
2023-02-17T13:35:17.747Z,12.00
2023-02-17T13:37:46.250Z,11.90
2023-02-17T13:40:15.934Z,11.90
2023-02-17T13:42:51.364Z,11.90
2023-02-17T13:45:31.222Z,12.00
2023-02-17T13:47:59.891Z,12.00
2023-02-17T13:50:35.594Z,12.00
2023-02-17T13:53:19.892Z,12.10
2023-02-17T13:55:46.576Z,12.10
2023-02-17T13:58:13.136Z,12.20
2023-02-17T14:00:43.511Z,12.30
2023-02-17T14:03:28.788Z,12.30
2023-02-17T14:05:57.812Z,12.40
2023-02-17T14:08:29.709Z,12.30
2023-02-17T14:10:57.234Z,12.30
2023-02-17T14:13:24.444Z,12.30
2023-02-17T14:15:57.395Z,12.30
2023-02-17T14:18:39.496Z,12.30
2023-02-17T14:21:09.662Z,12.40
2023-02-17T14:23:48.991Z,12.50
2023-02-17T14:26:38.066Z,12.60
2023-02-17T14:29:08.387Z,12.80
2023-02-17T14:31:39.787Z,12.90
2023-02-17T14:34:11.703Z,12.90
2023-02-17T14:36:39.388Z,13.00
2023-02-17T14:39:08.427Z,13.00
2023-02-17T14:41:35.156Z,13.00
2023-02-17T14:44:01.764Z,13.00
2023-02-17T14:46:28.451Z,12.90
2023-02-17T14:48:55.078Z,12.90
2023-02-17T14:51:24.366Z,12.90
2023-02-17T14:53:52.018Z,12.90
2023-02-17T14:56:26.762Z,12.80
2023-02-17T14:58:54.072Z,12.80
2023-02-17T15:01:22.334Z,12.70
2023-02-17T15:03:49.005Z,12.70
2023-02-17T15:06:18.956Z,12.60
2023-02-17T15:08:49.063Z,12.70
2023-02-17T15:11:20.622Z,12.60
2023-02-17T15:13:47.360Z,12.60
2023-02-17T15:16:14.092Z,12.50
2023-02-17T15:18:40.959Z,12.50
2023-02-17T15:21:32.219Z,12.40
2023-02-17T15:24:00.490Z,12.30
2023-02-17T15:26:28.479Z,12.20
2023-02-17T15:28:56.978Z,12.00
2023-02-17T15:31:25.328Z,11.90
2023-02-17T15:33:59.918Z,11.80
2023-02-17T15:36:28.353Z,11.80
2023-02-17T15:38:55.057Z,11.70
2023-02-17T15:41:25.620Z,11.60
2023-02-17T15:43:53.368Z,11.50
2023-02-17T15:46:21.008Z,11.40
2023-02-17T15:48:52.127Z,11.30
2023-02-17T15:51:19.917Z,11.20
2023-02-17T15:53:47.522Z,11.10
2023-02-17T15:56:19.100Z,11.00
2023-02-17T15:58:48.713Z,10.90
2023-02-17T16:01:29.274Z,10.80
2023-02-17T16:03:57.359Z,10.60
2023-02-17T16:06:28.035Z,10.50
2023-02-17T16:08:55.265Z,10.40
2023-02-17T16:11:23.320Z,10.30
2023-02-17T16:13:51.006Z,10.20
2023-02-17T16:16:24.104Z,10.10
2023-02-17T16:18:51.683Z,10.00
2023-02-17T16:21:18.525Z,10.00
2023-02-17T16:23:45.195Z,9.90
2023-02-17T16:26:36.674Z,9.80
2023-02-17T16:29:17.636Z,9.80
2023-02-17T16:31:45.152Z,9.70
2023-02-17T16:34:23.074Z,9.60
2023-02-17T16:36:52.252Z,9.40
2023-02-17T16:39:21.072Z,9.40
2023-02-17T16:41:48.655Z,9.30
2023-02-17T16:44:17.603Z,9.20
2023-02-17T16:46:48.878Z,9.20
2023-02-17T16:49:32.551Z,9.10
2023-02-17T16:52:07.936Z,9.10
2023-02-17T16:54:35.841Z,9.00
2023-02-17T16:57:02.698Z,8.90
2023-02-17T16:59:29.752Z,8.90
2023-02-17T17:01:56.325Z,8.90
2023-02-17T17:04:22.891Z,8.80
2023-02-17T17:06:51.860Z,8.80
2023-02-17T17:09:21.340Z,8.70
2023-02-17T17:11:47.986Z,8.70
2023-02-17T17:14:15.058Z,8.70
2023-02-17T17:16:44.395Z,8.70
2023-02-17T17:19:13.167Z,8.70
2023-02-17T17:21:39.723Z,8.70
2023-02-17T17:24:06.282Z,8.70
2023-02-17T17:26:39.739Z,8.60
2023-02-17T17:29:08.060Z,8.60
2023-02-17T17:31:34.962Z,8.50
2023-02-17T17:34:01.648Z,8.50
2023-02-17T17:36:35.635Z,8.50
2023-02-17T17:39:05.354Z,8.40
2023-02-17T17:41:32.776Z,8.30
2023-02-17T17:43:59.900Z,8.30
2023-02-17T17:46:29.697Z,8.20
2023-02-17T17:49:01.091Z,8.10
2023-02-17T17:51:30.737Z,8.10
2023-02-17T17:53:57.794Z,8.10
2023-02-17T17:56:27.869Z,8.00
2023-02-17T17:58:55.124Z,8.10
2023-02-17T18:01:22.253Z,8.10
2023-02-17T18:03:49.842Z,8.00
2023-02-17T18:06:18.985Z,8.00
2023-02-17T18:08:48.018Z,8.00
2023-02-17T18:11:17.186Z,7.90
2023-02-17T18:13:47.367Z,7.90
2023-02-17T18:16:14.815Z,7.90
2023-02-17T18:18:41.610Z,7.90
2023-02-17T18:21:08.236Z,7.90
2023-02-17T18:23:34.856Z,7.90
2023-02-17T18:26:01.575Z,7.80
2023-02-17T18:28:28.232Z,7.70
2023-02-17T18:30:56.858Z,7.70
2023-02-17T18:33:23.636Z,7.60
2023-02-17T18:35:50.429Z,7.60
2023-02-17T18:38:17.126Z,7.50
2023-02-17T18:40:43.943Z,7.50
2023-02-17T18:43:10.576Z,7.50
2023-02-17T18:45:37.216Z,7.50
2023-02-17T18:48:03.901Z,7.50
2023-02-17T18:50:33.032Z,7.50
2023-02-17T18:53:00.264Z,7.40
2023-02-17T18:55:26.863Z,7.40
2023-02-17T18:57:54.056Z,7.40
2023-02-17T19:00:20.962Z,7.40
2023-02-17T19:02:47.906Z,7.40
2023-02-17T19:05:14.769Z,7.30
2023-02-17T19:07:41.332Z,7.30
2023-02-17T19:10:08.763Z,7.30
2023-02-17T19:12:35.896Z,7.40
2023-02-17T19:15:02.542Z,7.30
2023-02-17T19:17:29.111Z,7.30
2023-02-17T19:19:55.711Z,7.30
2023-02-17T19:22:22.319Z,7.30
2023-02-17T19:24:53.550Z,7.30
2023-02-17T19:27:20.884Z,7.20
2023-02-17T19:29:47.830Z,7.10
2023-02-17T19:32:14.442Z,7.10
2023-02-17T19:34:41.114Z,7.20
2023-02-17T19:37:07.675Z,7.20
2023-02-17T19:39:35.113Z,7.20
2023-02-17T19:42:03.036Z,7.10
2023-02-17T19:44:31.111Z,7.10
2023-02-17T19:46:58.391Z,7.10
2023-02-17T19:49:25.166Z,7.00
2023-02-17T19:51:53.739Z,7.00
2023-02-17T19:54:20.318Z,7.00
2023-02-17T19:56:48.837Z,6.90
2023-02-17T19:59:15.452Z,6.90
2023-02-17T20:01:43.345Z,6.80
2023-02-17T20:04:10.807Z,6.80
2023-02-17T20:06:45.953Z,6.80
2023-02-17T20:09:20.090Z,6.80
2023-02-17T20:11:48.599Z,6.80
2023-02-17T20:14:15.293Z,6.80
2023-02-17T20:16:41.971Z,6.80
2023-02-17T20:19:08.682Z,6.80
2023-02-17T20:21:38.381Z,6.90
2023-02-17T20:24:05.523Z,6.70
2023-02-17T20:26:37.614Z,6.60
2023-02-17T20:29:04.451Z,6.60
2023-02-17T20:31:31.358Z,6.50
2023-02-17T20:33:57.999Z,6.40
2023-02-17T20:36:25.057Z,6.40
2023-02-17T20:38:51.853Z,6.40
2023-02-17T20:41:20.393Z,6.40
2023-02-17T20:43:47.833Z,6.40
2023-02-17T20:46:19.803Z,6.40
2023-02-17T20:48:46.679Z,6.40
2023-02-17T20:51:13.264Z,6.40
2023-02-17T20:53:39.934Z,6.40
2023-02-17T20:56:37.759Z,6.40
2023-02-17T20:59:06.122Z,6.40
2023-02-17T21:01:32.701Z,6.40
2023-02-17T21:03:59.271Z,6.40
2023-02-17T21:06:28.288Z,6.40
2023-02-17T21:08:58.752Z,6.40
2023-02-17T21:11:25.630Z,6.40
2023-02-17T21:13:52.805Z,6.30
2023-02-17T21:16:26.505Z,6.30
2023-02-17T21:18:53.606Z,6.20
2023-02-17T21:21:20.632Z,6.20
2023-02-17T21:23:47.943Z,6.10
2023-02-17T21:26:15.973Z,6.10
2023-02-17T21:28:43.135Z,6.10
2023-02-17T21:31:10.747Z,6.10
2023-02-17T21:33:41.808Z,6.10
2023-02-17T21:36:10.278Z,6.10
2023-02-17T21:38:37.441Z,6.10
2023-02-17T21:41:10.556Z,6.10
2023-02-17T21:43:57.022Z,6.00
2023-02-17T21:46:24.316Z,6.00
2023-02-17T21:48:53.168Z,5.90
2023-02-17T21:51:20.229Z,5.90
2023-02-17T21:53:47.037Z,5.90
2023-02-17T21:56:14.203Z,5.90
2023-02-17T21:58:44.689Z,5.90
2023-02-17T22:01:11.308Z,6.00
2023-02-17T22:03:37.854Z,6.00
2023-02-17T22:06:17.576Z,6.00
2023-02-17T22:08:44.635Z,6.00
2023-02-17T22:11:31.682Z,6.00
2023-02-17T22:14:01.135Z,6.00
2023-02-17T22:16:31.087Z,5.90
2023-02-17T22:18:57.988Z,5.90
2023-02-17T22:21:24.772Z,5.80
2023-02-17T22:23:51.961Z,5.80
2023-02-17T22:26:21.148Z,5.80
2023-02-17T22:28:48.413Z,5.80
2023-02-17T22:31:17.596Z,5.90
2023-02-17T22:33:44.614Z,5.90
2023-02-17T22:36:13.663Z,5.80
2023-02-17T22:38:40.282Z,5.80
2023-02-17T22:41:09.080Z,5.70
2023-02-17T22:43:37.360Z,5.70
2023-02-17T22:46:04.722Z,5.70
2023-02-17T22:48:32.219Z,5.70
2023-02-17T22:51:03.744Z,5.70
2023-02-17T22:53:30.307Z,5.70
2023-02-17T22:55:57.955Z,5.70
2023-02-17T22:58:26.166Z,5.60
2023-02-17T23:01:08.745Z,5.60
2023-02-17T23:03:35.913Z,5.60
2023-02-17T23:06:05.670Z,5.60
2023-02-17T23:08:32.654Z,5.60
2023-02-17T23:10:59.516Z,5.70
2023-02-17T23:13:26.183Z,5.60
2023-02-17T23:15:52.827Z,5.70
2023-02-17T23:18:20.098Z,5.70
2023-02-17T23:20:48.612Z,5.70
2023-02-17T23:23:15.775Z,5.70
2023-02-17T23:25:47.943Z,5.80
2023-02-17T23:28:14.811Z,5.80
2023-02-17T23:30:42.329Z,5.80
2023-02-17T23:33:09.289Z,5.90
2023-02-17T23:35:44.998Z,5.90
2023-02-17T23:38:12.953Z,6.00
2023-02-17T23:40:40.705Z,6.00
2023-02-17T23:43:07.980Z,6.00
2023-02-17T23:45:37.614Z,5.90
2023-02-17T23:48:05.588Z,5.90
2023-02-17T23:50:33.104Z,5.90
2023-02-17T23:52:59.683Z,5.90
2023-02-17T23:55:26.281Z,5.90
2023-02-17T23:57:52.850Z,5.90
